Terminal Aerodrome Forecast
Issued by NWS

Current Version | Previous Version | Graphics & Text | Print | Product List | Glossary On
Versions: 1 2 3 4 5 6 7 8 9 10 11 12 13 14 15 16
000
FTUS41 KPBZ 161337 AAA
TAFMGW
TAF AMD
KMGW 161337Z 1614/1712 00000KT 3SM BR SCT003
      TEMPO 1614/1615 1SM BR VV003
     FM161500 33005KT P6SM SCT040=

USA.gov is the U.S. government's official web portal to all federal, state and local government web resources and services.